createdAt,value
2023-01-12T00:02:24.266Z,4.59
2023-01-12T00:04:53.073Z,4.55
2023-01-12T00:07:22.103Z,4.51
2023-01-12T00:09:50.774Z,4.40
2023-01-12T00:12:19.497Z,4.31
2023-01-12T00:14:48.409Z,4.33
2023-01-12T00:17:20.075Z,4.38
2023-01-12T00:19:48.954Z,4.42
2023-01-12T00:22:19.684Z,4.40
2023-01-12T00:24:50.056Z,4.38
2023-01-12T00:27:21.411Z,4.39
2023-01-12T00:29:51.497Z,4.38
2023-01-12T00:32:22.072Z,4.34
2023-01-12T00:34:51.206Z,4.29
2023-01-12T00:37:21.091Z,4.24
2023-01-12T00:40:01.511Z,4.17
2023-01-12T00:42:40.948Z,4.19
2023-01-12T00:45:28.267Z,4.08
2023-01-12T00:47:58.858Z,4.14
2023-01-12T00:50:27.872Z,4.11
2023-01-12T00:52:56.636Z,4.12
2023-01-12T00:55:25.421Z,4.14
2023-01-12T00:57:54.154Z,4.17
2023-01-12T01:00:23.153Z,4.15
2023-01-12T01:02:51.964Z,4.16
2023-01-12T01:05:22.248Z,4.16
2023-01-12T01:07:51.206Z,4.15
2023-01-12T01:10:20.004Z,4.14
2023-01-12T01:12:49.248Z,4.15
2023-01-12T01:15:19.111Z,4.12
2023-01-12T01:17:47.935Z,4.12
2023-01-12T01:20:16.824Z,4.13
2023-01-12T01:22:47.088Z,4.10
2023-01-12T01:25:16.321Z,4.08
2023-01-12T01:27:45.061Z,4.12
2023-01-12T01:30:14.030Z,4.12
2023-01-12T01:32:42.719Z,4.11
2023-01-12T01:35:11.715Z,4.12
2023-01-12T01:37:40.403Z,4.15
2023-01-12T01:40:12.017Z,4.15
2023-01-12T01:42:42.089Z,4.16
2023-01-12T01:45:13.319Z,4.13
2023-01-12T01:47:46.520Z,4.11
2023-01-12T01:50:19.862Z,4.11
2023-01-12T01:52:53.734Z,4.11
2023-01-12T01:55:26.804Z,4.15
2023-01-12T01:58:00.373Z,4.15
2023-01-12T02:00:29.663Z,4.19
2023-01-12T02:03:01.076Z,4.19
2023-01-12T02:05:30.379Z,4.19
2023-01-12T02:08:07.926Z,4.22
2023-01-12T02:10:39.389Z,4.23
2023-01-12T02:13:18.329Z,4.23
2023-01-12T02:16:04.127Z,4.25
2023-01-12T02:18:38.522Z,4.26
2023-01-12T02:21:22.088Z,4.29
2023-01-12T02:24:12.376Z,4.30
2023-01-12T02:27:14.607Z,4.34
2023-01-12T02:30:08.019Z,4.36
2023-01-12T02:32:46.739Z,4.36
2023-01-12T02:35:26.432Z,4.37
2023-01-12T02:38:02.277Z,4.38
2023-01-12T02:40:38.567Z,4.41
2023-01-12T02:43:13.837Z,4.42
2023-01-12T02:45:51.354Z,4.41
2023-01-12T02:48:27.109Z,4.42
2023-01-12T02:51:03.605Z,4.40
2023-01-12T02:53:43.461Z,4.38
2023-01-12T02:56:15.863Z,4.40
2023-01-12T02:58:49.969Z,4.40
2023-01-12T03:01:20.849Z,4.39
2023-01-12T03:03:52.709Z,4.36
2023-01-12T03:06:21.717Z,4.34
2023-01-12T03:08:52.435Z,4.36
2023-01-12T03:11:24.068Z,4.39
2023-01-12T03:13:56.892Z,4.39
2023-01-12T03:16:30.459Z,4.42
2023-01-12T03:19:03.545Z,4.42
2023-01-12T03:21:39.111Z,4.41
2023-01-12T03:24:12.734Z,4.37
2023-01-12T03:26:45.875Z,4.33
2023-01-12T03:29:20.888Z,4.30
2023-01-12T03:31:49.887Z,4.30
2023-01-12T03:34:20.226Z,4.30
2023-01-12T03:36:59.353Z,4.30
2023-01-12T03:39:38.576Z,4.33
2023-01-12T03:42:14.180Z,4.35
2023-01-12T03:44:53.397Z,4.31
2023-01-12T03:47:25.994Z,4.34
2023-01-12T03:50:00.527Z,4.32
2023-01-12T03:52:31.758Z,4.35
2023-01-12T03:55:03.132Z,4.38
2023-01-12T03:57:33.103Z,4.38
2023-01-12T04:00:04.318Z,4.35
2023-01-12T04:02:41.528Z,4.34
2023-01-12T04:05:14.869Z,4.33
2023-01-12T04:07:43.604Z,4.32
2023-01-12T04:10:12.921Z,4.33
2023-01-12T04:12:40.595Z,4.36
2023-01-12T04:15:10.145Z,4.33
2023-01-12T04:17:38.817Z,4.32
2023-01-12T04:20:09.829Z,4.29
2023-01-12T04:22:44.865Z,4.32
2023-01-12T04:25:15.845Z,4.30
2023-01-12T04:27:48.760Z,4.31
2023-01-12T04:30:20.555Z,4.29
2023-01-12T04:32:49.412Z,4.28
2023-01-12T04:35:18.754Z,4.31
2023-01-12T04:37:49.227Z,4.34
2023-01-12T04:40:18.637Z,4.37
2023-01-12T04:43:00.903Z,4.34
2023-01-12T04:45:30.373Z,4.30
2023-01-12T04:48:03.294Z,4.30
2023-01-12T04:50:32.294Z,4.24
2023-01-12T04:53:03.996Z,4.30
2023-01-12T04:55:32.921Z,4.33
2023-01-12T04:58:01.995Z,4.35
2023-01-12T05:00:30.850Z,4.35
2023-01-12T05:03:02.441Z,4.33
2023-01-12T05:05:33.529Z,4.37
2023-01-12T05:08:15.816Z,4.38
2023-01-12T05:10:44.620Z,4.41
2023-01-12T05:13:13.315Z,4.42
2023-01-12T05:15:41.979Z,4.43
2023-01-12T05:18:10.848Z,4.46
2023-01-12T05:20:39.676Z,4.46
2023-01-12T05:23:09.778Z,4.43
2023-01-12T05:25:38.600Z,4.40
2023-01-12T05:28:07.365Z,4.38
2023-01-12T05:30:36.242Z,4.37
2023-01-12T05:33:05.871Z,4.39
2023-01-12T05:35:34.365Z,4.44
2023-01-12T05:38:03.145Z,4.47
2023-01-12T05:40:33.443Z,4.48
2023-01-12T05:43:11.974Z,4.51
2023-01-12T05:45:40.888Z,4.49
2023-01-12T05:48:09.781Z,4.46
2023-01-12T05:50:39.145Z,4.47
2023-01-12T05:53:10.693Z,4.47
2023-01-12T05:55:41.181Z,4.44
2023-01-12T05:58:10.035Z,4.44
2023-01-12T06:00:38.802Z,4.46
2023-01-12T06:03:07.671Z,4.47
2023-01-12T06:05:36.277Z,4.50
2023-01-12T06:08:05.185Z,4.51
2023-01-12T06:10:34.653Z,4.51
2023-01-12T06:13:14.594Z,4.52
2023-01-12T06:15:43.468Z,4.53
2023-01-12T06:18:12.364Z,4.54
2023-01-12T06:20:41.310Z,4.51
2023-01-12T06:23:09.921Z,4.43
2023-01-12T06:25:38.827Z,4.45
2023-01-12T06:28:09.031Z,4.49
2023-01-12T06:30:37.820Z,4.51
2023-01-12T06:33:06.531Z,4.52
2023-01-12T06:35:35.379Z,4.53
2023-01-12T06:38:04.251Z,4.53
2023-01-12T06:40:33.650Z,4.51
2023-01-12T06:43:02.418Z,4.50
2023-01-12T06:45:32.629Z,4.53
2023-01-12T06:48:01.552Z,4.52
2023-01-12T06:50:30.365Z,4.52
2023-01-12T06:53:00.669Z,4.52
2023-01-12T06:55:29.825Z,4.52
2023-01-12T06:57:58.977Z,4.49
2023-01-12T07:00:27.769Z,4.50
2023-01-12T07:02:57.839Z,4.51
2023-01-12T07:05:26.805Z,4.55
2023-01-12T07:08:01.552Z,4.57
2023-01-12T07:10:32.815Z,4.55
2023-01-12T07:13:01.923Z,4.52
2023-01-12T07:15:30.705Z,4.52
2023-01-12T07:18:01.004Z,4.53
2023-01-12T07:20:29.824Z,4.53
2023-01-12T07:22:58.685Z,4.54
2023-01-12T07:25:27.923Z,4.51
2023-01-12T07:27:58.337Z,4.51
2023-01-12T07:30:28.469Z,4.51
2023-01-12T07:32:57.360Z,4.50
2023-01-12T07:35:27.464Z,4.52
2023-01-12T07:37:56.195Z,4.52
2023-01-12T07:40:25.158Z,4.52
2023-01-12T07:43:00.607Z,4.54
2023-01-12T07:45:30.135Z,4.58
2023-01-12T07:47:58.779Z,4.58
2023-01-12T07:50:30.469Z,4.64
2023-01-12T07:53:02.010Z,4.66
2023-01-12T07:55:31.162Z,4.64
2023-01-12T07:58:03.388Z,4.67
2023-01-12T08:00:32.679Z,4.76
2023-01-12T08:03:07.326Z,4.82
2023-01-12T08:05:39.044Z,4.85
2023-01-12T08:08:08.666Z,4.86
2023-01-12T08:10:37.510Z,4.86
2023-01-12T08:13:06.174Z,4.89
2023-01-12T08:15:40.558Z,4.88
2023-01-12T08:18:17.242Z,4.88
2023-01-12T08:20:49.158Z,4.91
2023-01-12T08:23:23.669Z,4.98
2023-01-12T08:25:58.740Z,4.98
2023-01-12T08:28:35.186Z,5.08
2023-01-12T08:31:04.449Z,5.18
2023-01-12T08:33:33.131Z,5.27
2023-01-12T08:36:05.249Z,5.35
2023-01-12T08:38:34.026Z,5.47
2023-01-12T08:41:12.458Z,5.64
2023-01-12T08:43:51.213Z,5.73
2023-01-12T08:46:20.122Z,5.75
2023-01-12T08:48:48.830Z,5.82
2023-01-12T08:51:19.062Z,5.93
2023-01-12T08:53:49.509Z,6.09
2023-01-12T08:56:18.464Z,6.18
2023-01-12T08:58:47.564Z,6.21
2023-01-12T09:01:17.512Z,6.21
2023-01-12T09:03:46.618Z,6.23
2023-01-12T09:06:17.554Z,6.24
2023-01-12T09:08:48.149Z,6.25
2023-01-12T09:11:17.099Z,6.20
2023-01-12T09:13:45.768Z,6.14
2023-01-12T09:16:17.613Z,6.07
2023-01-12T09:18:46.849Z,6.10
2023-01-12T09:21:17.329Z,6.06
2023-01-12T09:23:49.757Z,5.83
2023-01-12T09:26:21.041Z,5.69
2023-01-12T09:28:51.702Z,5.69
2023-01-12T09:31:22.561Z,5.74
2023-01-12T09:33:53.254Z,5.84
2023-01-12T09:36:24.804Z,5.91
2023-01-12T09:38:55.463Z,5.96
2023-01-12T09:41:37.530Z,6.04
2023-01-12T09:44:23.180Z,6.02
2023-01-12T09:47:01.818Z,6.09
2023-01-12T09:49:35.529Z,6.15
2023-01-12T09:52:12.979Z,6.04
2023-01-12T09:54:43.480Z,6.09
2023-01-12T09:57:30.628Z,6.15
2023-01-12T10:00:04.141Z,6.20
2023-01-12T10:02:45.723Z,6.13
2023-01-12T10:05:38.587Z,6.11
2023-01-12T10:08:17.304Z,6.09
2023-01-12T10:11:01.815Z,6.07
2023-01-12T10:13:51.055Z,6.13
2023-01-12T10:16:27.248Z,6.21
2023-01-12T10:19:02.773Z,6.30
2023-01-12T10:21:33.073Z,6.33
2023-01-12T10:24:02.004Z,6.39
2023-01-12T10:26:42.579Z,6.42
2023-01-12T10:29:13.519Z,6.45
2023-01-12T10:31:42.361Z,6.50
2023-01-12T10:34:13.262Z,6.59
2023-01-12T10:36:47.668Z,6.61
2023-01-12T10:39:35.428Z,6.62
2023-01-12T10:42:32.241Z,6.59
2023-01-12T10:45:15.481Z,6.61
2023-01-12T10:47:45.942Z,6.60
2023-01-12T10:50:24.853Z,6.51
2023-01-12T10:53:02.758Z,6.50
2023-01-12T10:55:35.196Z,6.59
2023-01-12T10:58:05.808Z,6.64
2023-01-12T11:00:34.715Z,6.65
2023-01-12T11:03:03.580Z,6.65
2023-01-12T11:05:37.834Z,6.68
2023-01-12T11:08:23.361Z,6.70
2023-01-12T11:10:52.713Z,6.69
2023-01-12T11:13:37.010Z,6.67
2023-01-12T11:16:18.624Z,6.59
2023-01-12T11:18:53.108Z,6.66
2023-01-12T11:21:27.308Z,6.73
2023-01-12T11:24:00.270Z,6.83
2023-01-12T11:26:34.125Z,6.95
2023-01-12T11:29:17.716Z,7.21
2023-01-12T11:31:49.135Z,7.46
2023-01-12T11:34:20.978Z,7.58
2023-01-12T11:36:55.198Z,7.52
2023-01-12T11:39:25.872Z,7.49
2023-01-12T11:42:06.946Z,7.68
2023-01-12T11:44:43.735Z,7.75
2023-01-12T11:47:15.114Z,7.82
2023-01-12T11:49:53.035Z,8.03
2023-01-12T11:52:22.045Z,8.23
2023-01-12T11:54:50.865Z,8.45
2023-01-12T11:57:37.525Z,8.71
2023-01-12T12:00:27.120Z,8.85
2023-01-12T12:03:01.541Z,8.98
2023-01-12T12:05:44.199Z,8.98
2023-01-12T12:08:24.810Z,8.86
2023-01-12T12:10:58.218Z,8.76
2023-01-12T12:13:33.496Z,8.69
2023-01-12T12:16:21.154Z,8.61
2023-01-12T12:19:10.779Z,8.82
2023-01-12T12:21:48.961Z,9.02
2023-01-12T12:24:39.468Z,9.13
2023-01-12T12:27:18.402Z,9.67
2023-01-12T12:30:04.493Z,10.33
2023-01-12T12:32:44.481Z,10.99
2023-01-12T12:35:41.652Z,11.43
2023-01-12T12:38:27.139Z,11.77
2023-01-12T12:41:23.706Z,12.19
2023-01-12T12:44:14.356Z,12.23
2023-01-12T12:46:55.681Z,12.25
2023-01-12T12:49:32.876Z,12.13
2023-01-12T12:52:02.908Z,11.92
2023-01-12T12:54:32.245Z,11.89
2023-01-12T12:57:00.986Z,11.91
2023-01-12T12:59:52.196Z,11.41
2023-01-12T13:02:34.241Z,11.18
2023-01-12T13:05:07.235Z,10.92
2023-01-12T13:07:42.402Z,10.47
2023-01-12T13:10:20.800Z,10.33
2023-01-12T13:12:59.272Z,9.94
2023-01-12T13:15:36.308Z,9.71
2023-01-12T13:18:07.389Z,9.51
2023-01-12T13:21:00.142Z,9.18
2023-01-12T13:23:44.411Z,8.96
2023-01-12T13:26:37.797Z,8.74
2023-01-12T13:29:27.002Z,8.76
2023-01-12T13:31:59.711Z,8.59
2023-01-12T13:34:42.038Z,8.40
2023-01-12T13:37:25.190Z,8.25
2023-01-12T13:40:01.597Z,8.23
2023-01-12T13:42:40.257Z,8.20
2023-01-12T13:45:17.274Z,8.16
2023-01-12T13:47:47.742Z,8.13
2023-01-12T13:50:20.518Z,7.95
2023-01-12T13:53:00.731Z,7.85
2023-01-12T13:55:31.500Z,7.81
2023-01-12T13:58:02.647Z,7.71
2023-01-12T14:00:34.504Z,7.63
2023-01-12T14:03:05.990Z,7.61
2023-01-12T14:05:47.820Z,7.60
2023-01-12T14:08:51.136Z,7.56
2023-01-12T14:11:49.121Z,7.58
2023-01-12T14:14:55.952Z,7.50
2023-01-12T14:17:39.152Z,7.45
2023-01-12T14:20:16.077Z,7.42
2023-01-12T14:22:46.152Z,7.39
2023-01-12T14:25:22.307Z,7.29
2023-01-12T14:27:53.147Z,7.14
2023-01-12T14:30:22.958Z,7.07
2023-01-12T14:32:52.584Z,7.07
2023-01-12T14:35:21.869Z,7.02
2023-01-12T14:37:53.388Z,6.97
2023-01-12T14:40:26.908Z,6.95
2023-01-12T14:43:06.373Z,6.88
2023-01-12T14:45:45.106Z,6.74
2023-01-12T14:48:25.990Z,6.60
2023-01-12T14:51:18.757Z,6.52
2023-01-12T14:53:49.658Z,6.49
2023-01-12T14:56:24.458Z,6.39
2023-01-12T14:58:54.728Z,6.37
2023-01-12T15:01:34.242Z,6.36
2023-01-12T15:04:03.278Z,6.26
2023-01-12T15:06:38.144Z,6.24
2023-01-12T15:09:11.100Z,6.16
2023-01-12T15:11:43.022Z,5.99
2023-01-12T15:14:25.231Z,5.87
2023-01-12T15:17:04.293Z,5.77
2023-01-12T15:19:42.907Z,5.79
2023-01-12T15:22:21.704Z,5.77
2023-01-12T15:25:00.553Z,5.71
2023-01-12T15:27:31.474Z,5.57
2023-01-12T15:30:00.307Z,5.52
2023-01-12T15:32:46.832Z,5.41
2023-01-12T15:35:21.718Z,5.33
2023-01-12T15:37:50.893Z,5.26
2023-01-12T15:40:20.258Z,5.18
2023-01-12T15:42:53.372Z,5.14
2023-01-12T15:45:35.665Z,5.14
2023-01-12T15:48:05.315Z,5.15
2023-01-12T15:50:35.057Z,5.08
2023-01-12T15:53:04.385Z,5.02
2023-01-12T15:55:36.179Z,4.97
2023-01-12T15:58:06.829Z,4.93
2023-01-12T16:00:35.943Z,4.72
2023-01-12T16:03:05.075Z,4.67
2023-01-12T16:05:33.952Z,4.66
2023-01-12T16:08:02.787Z,4.69
2023-01-12T16:10:31.513Z,4.72
2023-01-12T16:13:02.103Z,4.78
2023-01-12T16:15:34.322Z,4.68
2023-01-12T16:18:03.085Z,4.63
2023-01-12T16:20:31.766Z,4.66
2023-01-12T16:23:00.882Z,4.75
2023-01-12T16:25:29.629Z,4.74
2023-01-12T16:28:00.981Z,4.70
2023-01-12T16:30:29.854Z,4.67
2023-01-12T16:33:00.776Z,4.64
2023-01-12T16:35:30.225Z,4.65
2023-01-12T16:37:58.982Z,4.63
2023-01-12T16:40:27.807Z,4.64
2023-01-12T16:42:56.621Z,4.65
2023-01-12T16:45:25.411Z,4.71
2023-01-12T16:47:58.195Z,4.80
2023-01-12T16:50:28.423Z,4.85
2023-01-12T16:52:57.197Z,4.91
2023-01-12T16:55:26.390Z,4.95
2023-01-12T16:57:55.194Z,4.95
2023-01-12T17:00:24.366Z,4.97
2023-01-12T17:02:53.504Z,4.93
2023-01-12T17:05:22.528Z,4.89
2023-01-12T17:07:54.282Z,4.75
2023-01-12T17:10:24.282Z,4.64
2023-01-12T17:12:54.868Z,4.61
2023-01-12T17:15:30.853Z,4.57
2023-01-12T17:17:59.722Z,4.51
2023-01-12T17:20:29.985Z,4.57
2023-01-12T17:23:01.635Z,4.64
2023-01-12T17:25:30.357Z,4.69
2023-01-12T17:27:59.173Z,4.71
2023-01-12T17:30:27.811Z,4.74
2023-01-12T17:32:56.776Z,4.80
2023-01-12T17:35:25.452Z,4.85
2023-01-12T17:37:55.531Z,4.91
2023-01-12T17:40:27.730Z,4.95
2023-01-12T17:43:08.028Z,4.94
2023-01-12T17:45:42.876Z,4.95
2023-01-12T17:48:13.343Z,4.94
2023-01-12T17:50:42.795Z,4.92
2023-01-12T17:53:11.637Z,4.92
2023-01-12T17:55:48.263Z,4.89
2023-01-12T17:58:18.965Z,4.91
2023-01-12T18:00:47.765Z,4.91
2023-01-12T18:03:16.625Z,4.91
2023-01-12T18:05:49.976Z,4.90
2023-01-12T18:08:22.691Z,4.95
2023-01-12T18:10:53.056Z,4.97
2023-01-12T18:13:22.061Z,4.97
2023-01-12T18:15:50.773Z,4.96
2023-01-12T18:18:19.614Z,4.95
2023-01-12T18:20:48.773Z,5.00
2023-01-12T18:23:18.613Z,4.97
2023-01-12T18:25:47.351Z,4.99
2023-01-12T18:28:17.459Z,5.01
2023-01-12T18:30:46.150Z,5.04
2023-01-12T18:33:14.884Z,5.03
2023-01-12T18:35:43.680Z,5.00
2023-01-12T18:38:12.489Z,4.99
2023-01-12T18:40:41.368Z,4.95
2023-01-12T18:43:09.071Z,4.98
2023-01-12T18:45:39.305Z,4.99
2023-01-12T18:48:17.946Z,5.01
2023-01-12T18:50:56.573Z,5.02
2023-01-12T18:53:28.917Z,5.02
2023-01-12T18:55:58.373Z,5.04
2023-01-12T18:58:28.962Z,5.07
2023-01-12T19:01:00.504Z,5.07
2023-01-12T19:03:29.426Z,5.06
2023-01-12T19:06:10.319Z,5.03
2023-01-12T19:08:49.020Z,5.00
2023-01-12T19:11:17.941Z,4.99
2023-01-12T19:13:56.678Z,4.97
2023-01-12T19:16:36.924Z,4.95
2023-01-12T19:19:07.496Z,4.97
2023-01-12T19:21:46.385Z,4.91
2023-01-12T19:24:25.100Z,4.83
2023-01-12T19:27:03.704Z,4.81
2023-01-12T19:29:34.366Z,4.79
2023-01-12T19:32:04.578Z,4.75
2023-01-12T19:34:33.258Z,4.71
2023-01-12T19:37:01.954Z,4.70
2023-01-12T19:39:55.761Z,4.74
2023-01-12T19:42:39.556Z,4.80
2023-01-12T19:45:10.599Z,4.82
2023-01-12T19:47:41.494Z,4.78
2023-01-12T19:50:13.053Z,4.72
2023-01-12T19:52:43.681Z,4.70
2023-01-12T19:55:15.001Z,4.65
2023-01-12T19:57:44.699Z,4.69
2023-01-12T20:00:15.408Z,4.71
2023-01-12T20:02:46.488Z,4.70
2023-01-12T20:05:22.449Z,4.65
2023-01-12T20:07:53.103Z,4.66
2023-01-12T20:10:23.095Z,4.68
2023-01-12T20:12:52.677Z,4.71
2023-01-12T20:15:22.238Z,4.74
2023-01-12T20:17:52.723Z,4.78
2023-01-12T20:20:21.824Z,4.81
2023-01-12T20:22:51.805Z,4.83
2023-01-12T20:25:21.071Z,4.76
2023-01-12T20:27:50.447Z,4.72
2023-01-12T20:30:32.034Z,4.80
2023-01-12T20:33:07.751Z,4.79
2023-01-12T20:35:38.802Z,4.81
2023-01-12T20:38:13.519Z,4.84
2023-01-12T20:40:43.124Z,4.88
2023-01-12T20:43:11.919Z,4.87
2023-01-12T20:45:41.897Z,4.83
2023-01-12T20:48:15.291Z,4.79
2023-01-12T20:50:45.316Z,4.77
2023-01-12T20:53:15.733Z,4.77
2023-01-12T20:55:45.387Z,4.73
2023-01-12T20:58:14.022Z,4.73
2023-01-12T21:00:43.077Z,4.71
2023-01-12T21:03:13.482Z,4.69
2023-01-12T21:05:43.619Z,4.67
2023-01-12T21:08:12.563Z,4.65
2023-01-12T21:10:42.289Z,4.67
2023-01-12T21:13:11.165Z,4.65
2023-01-12T21:15:39.789Z,4.64
2023-01-12T21:18:08.879Z,4.65
2023-01-12T21:20:42.736Z,4.68
2023-01-12T21:23:12.125Z,4.72
2023-01-12T21:25:42.875Z,4.76
2023-01-12T21:28:11.739Z,4.74
2023-01-12T21:30:40.967Z,4.75
2023-01-12T21:33:10.656Z,4.76
2023-01-12T21:35:40.608Z,4.75
2023-01-12T21:38:09.406Z,4.73
2023-01-12T21:40:38.959Z,4.78
2023-01-12T21:43:10.462Z,4.78
2023-01-12T21:45:42.349Z,4.79
2023-01-12T21:48:12.911Z,4.82
2023-01-12T21:50:43.568Z,4.84
2023-01-12T21:53:16.548Z,4.81
2023-01-12T21:55:53.977Z,4.83
2023-01-12T21:58:23.057Z,4.85
2023-01-12T22:00:52.093Z,4.86
2023-01-12T22:03:24.152Z,4.86
2023-01-12T22:05:54.957Z,4.80
2023-01-12T22:08:23.802Z,4.83
2023-01-12T22:10:52.489Z,4.84
2023-01-12T22:13:21.282Z,4.84
2023-01-12T22:15:51.422Z,4.85
2023-01-12T22:18:21.254Z,4.90
2023-01-12T22:20:51.214Z,4.90
2023-01-12T22:23:21.380Z,4.92
2023-01-12T22:25:51.096Z,4.92
2023-01-12T22:28:19.921Z,4.88
2023-01-12T22:30:48.702Z,4.83
2023-01-12T22:33:17.449Z,4.82
2023-01-12T22:35:47.213Z,4.83
2023-01-12T22:38:15.551Z,4.83
2023-01-12T22:40:45.796Z,4.86
2023-01-12T22:43:24.638Z,4.86
2023-01-12T22:45:55.229Z,4.86
2023-01-12T22:48:24.034Z,4.85
2023-01-12T22:50:54.764Z,4.83
2023-01-12T22:53:25.388Z,4.84
2023-01-12T22:56:00.274Z,4.85
2023-01-12T22:58:29.086Z,4.88
2023-01-12T23:01:04.032Z,4.91
2023-01-12T23:03:33.530Z,4.92
2023-01-12T23:06:02.748Z,4.92
2023-01-12T23:08:31.871Z,4.90
2023-01-12T23:11:07.201Z,4.94
2023-01-12T23:13:36.649Z,4.93
2023-01-12T23:16:07.825Z,4.93
2023-01-12T23:18:39.162Z,4.95
2023-01-12T23:21:11.813Z,4.95
2023-01-12T23:23:40.725Z,4.94
2023-01-12T23:26:13.363Z,4.90
2023-01-12T23:28:47.659Z,4.88
2023-01-12T23:31:18.482Z,4.91
2023-01-12T23:33:47.561Z,4.97
2023-01-12T23:36:18.472Z,5.00
2023-01-12T23:38:47.525Z,5.01
2023-01-12T23:41:19.494Z,5.01
2023-01-12T23:43:50.239Z,5.02
2023-01-12T23:46:22.925Z,5.00
2023-01-12T23:48:52.580Z,4.99
2023-01-12T23:51:21.549Z,4.98
2023-01-12T23:53:53.254Z,4.96
2023-01-12T23:56:23.747Z,4.93
2023-01-12T23:58:52.560Z,4.89
